sensor_id;sensor_type;location;lat;lon;timestamp;pressure;altitude;pressure_sealevel;temperature;humidity
80798;BME280;70202;52.238;10.680;2023-08-01T00:00:22;98622.75;;;18.20;82.20
80798;BME280;70202;52.238;10.680;2023-08-01T00:01:23;98620.59;;;18.14;82.21
80798;BME280;70202;52.238;10.680;2023-08-01T00:02:23;98619.13;;;18.20;82.35
80798;BME280;70202;52.238;10.680;2023-08-01T00:03:23;98614.63;;;18.19;82.25
80798;BME280;70202;52.238;10.680;2023-08-01T00:04:24;98610.72;;;18.12;82.16
80798;BME280;70202;52.238;10.680;2023-08-01T00:05:24;98620.16;;;18.19;82.16
80798;BME280;70202;52.238;10.680;2023-08-01T00:06:25;98621.00;;;18.19;82.22
80798;BME280;70202;52.238;10.680;2023-08-01T00:07:28;98618.25;;;18.19;82.51
80798;BME280;70202;52.238;10.680;2023-08-01T00:08:29;98613.91;;;18.17;82.59
80798;BME280;70202;52.238;10.680;2023-08-01T00:09:29;98600.56;;;18.12;82.32
80798;BME280;70202;52.238;10.680;2023-08-01T00:10:29;98606.38;;;18.19;82.41
80798;BME280;70202;52.238;10.680;2023-08-01T00:11:30;98606.38;;;18.19;82.48
80798;BME280;70202;52.238;10.680;2023-08-01T00:12:30;98592.31;;;18.12;82.18
80798;BME280;70202;52.238;10.680;2023-08-01T00:13:30;98584.44;;;18.17;82.22
80798;BME280;70202;52.238;10.680;2023-08-01T00:14:31;98585.31;;;18.18;82.07
80798;BME280;70202;52.238;10.680;2023-08-01T00:15:33;98562.16;;;18.11;82.31
80798;BME280;70202;52.238;10.680;2023-08-01T00:16:33;98568.94;;;18.16;82.11
80798;BME280;70202;52.238;10.680;2023-08-01T00:17:33;98559.97;;;18.14;82.37
80798;BME280;70202;52.238;10.680;2023-08-01T00:18:35;98558.06;;;18.15;82.31
80798;BME280;70202;52.238;10.680;2023-08-01T00:19:35;98550.66;;;18.15;82.23
80798;BME280;70202;52.238;10.680;2023-08-01T00:20:36;98549.81;;;18.15;82.20
80798;BME280;70202;52.238;10.680;2023-08-01T00:21:36;98557.22;;;18.14;82.46
80798;BME280;70202;52.238;10.680;2023-08-01T00:22:36;98563.72;;;18.13;82.24
80798;BME280;70202;52.238;10.680;2023-08-01T00:23:37;98573.88;;;18.13;82.30
80798;BME280;70202;52.238;10.680;2023-08-01T00:24:38;98579.38;;;18.13;82.40
80798;BME280;70202;52.238;10.680;2023-08-01T00:25:38;98574.75;;;18.13;82.51
80798;BME280;70202;52.238;10.680;2023-08-01T00:26:39;98576.63;;;18.13;82.43
80798;BME280;70202;52.238;10.680;2023-08-01T00:27:39;98561.84;;;18.14;82.42
80798;BME280;70202;52.238;10.680;2023-08-01T00:28:40;98565.47;;;18.14;82.43
80798;BME280;70202;52.238;10.680;2023-08-01T00:29:40;98566.34;;;18.15;82.22
80798;BME280;70202;52.238;10.680;2023-08-01T00:30:41;98569.09;;;18.15;81.83
80798;BME280;70202;52.238;10.680;2023-08-01T00:31:41;98563.44;;;18.16;82.29
80798;BME280;70202;52.238;10.680;2023-08-01T00:32:42;98551.69;;;18.14;82.48
80798;BME280;70202;52.238;10.680;2023-08-01T00:33:42;98548.06;;;18.14;82.24
80798;BME280;70202;52.238;10.680;2023-08-01T00:34:43;98542.00;;;18.10;82.30
80798;BME280;70202;52.238;10.680;2023-08-01T00:35:43;98555.31;;;18.15;82.19
80798;BME280;70202;52.238;10.680;2023-08-01T00:36:44;98548.94;;;18.14;82.22
80798;BME280;70202;52.238;10.680;2023-08-01T00:37:44;98548.78;;;18.16;82.44
80798;BME280;70202;52.238;10.680;2023-08-01T00:38:45;98544.13;;;18.16;82.09
80798;BME280;70202;52.238;10.680;2023-08-01T00:39:45;98537.75;;;18.16;82.15
80798;BME280;70202;52.238;10.680;2023-08-01T00:40:45;98538.63;;;18.16;82.48
80798;BME280;70202;52.238;10.680;2023-08-01T00:41:47;98539.66;;;18.15;82.31
80798;BME280;70202;52.238;10.680;2023-08-01T00:42:47;98524.88;;;18.07;82.41
80798;BME280;70202;52.238;10.680;2023-08-01T00:43:48;98536.72;;;18.17;83.07
80798;BME280;70202;52.238;10.680;2023-08-01T00:44:49;98549.66;;;18.16;82.29
80798;BME280;70202;52.238;10.680;2023-08-01T00:45:51;98535.00;;;18.16;82.33
80798;BME280;70202;52.238;10.680;2023-08-01T00:46:54;98534.13;;;18.15;82.56
80798;BME280;70202;52.238;10.680;2023-08-01T00:47:54;98533.28;;;18.15;82.54
80798;BME280;70202;52.238;10.680;2023-08-01T00:48:55;98518.34;;;18.08;82.09
80798;BME280;70202;52.238;10.680;2023-08-01T00:49:58;98526.03;;;18.14;82.52
80798;BME280;70202;52.238;10.680;2023-08-01T00:51:01;98516.34;;;18.10;82.53
80798;BME280;70202;52.238;10.680;2023-08-01T00:52:03;98526.03;;;18.14;82.36
80798;BME280;70202;52.238;10.680;2023-08-01T00:53:04;98510.53;;;18.03;82.56
80798;BME280;70202;52.238;10.680;2023-08-01T00:54:06;98518.75;;;18.13;82.36
80798;BME280;70202;52.238;10.680;2023-08-01T00:55:06;98491.25;;;18.03;82.67
80798;BME280;70202;52.238;10.680;2023-08-01T00:56:07;98514.28;;;18.12;82.71
80798;BME280;70202;52.238;10.680;2023-08-01T00:57:08;98510.66;;;18.11;82.70
80798;BME280;70202;52.238;10.680;2023-08-01T00:58:08;98508.19;;;18.08;82.59
80798;BME280;70202;52.238;10.680;2023-08-01T00:59:09;98507.16;;;18.09;82.48
80798;BME280;70202;52.238;10.680;2023-08-01T01:00:10;98496.59;;;18.05;82.73
80798;BME280;70202;52.238;10.680;2023-08-01T01:01:10;98510.94;;;18.08;82.66
80798;BME280;70202;52.238;10.680;2023-08-01T01:02:10;98504.41;;;18.09;82.43
80798;BME280;70202;52.238;10.680;2023-08-01T01:03:12;98497.16;;;18.08;82.50
80798;BME280;70202;52.238;10.680;2023-08-01T01:04:13;98497.34;;;18.07;82.09
80798;BME280;70202;52.238;10.680;2023-08-01T01:05:13;98485.34;;;17.98;82.46
80798;BME280;70202;52.238;10.680;2023-08-01T01:06:26;98503.72;;;18.07;82.51
80798;BME280;70202;52.238;10.680;2023-08-01T01:07:29;98499.22;;;18.06;82.56
80798;BME280;70202;52.238;10.680;2023-08-01T01:08:29;98497.63;;;18.04;82.47
80798;BME280;70202;52.238;10.680;2023-08-01T01:09:30;98477.66;;;17.92;82.63
80798;BME280;70202;52.238;10.680;2023-08-01T01:10:33;98501.41;;;18.03;82.36
80798;BME280;70202;52.238;10.680;2023-08-01T01:11:34;98483.44;;;17.98;82.58
80798;BME280;70202;52.238;10.680;2023-08-01T01:12:35;98494.16;;;18.02;82.40
80798;BME280;70202;52.238;10.680;2023-08-01T01:13:35;98494.16;;;18.02;82.58
80798;BME280;70202;52.238;10.680;2023-08-01T01:14:36;98476.78;;;17.91;82.53
80798;BME280;70202;52.238;10.680;2023-08-01T01:15:36;98496.94;;;18.02;82.69
80798;BME280;70202;52.238;10.680;2023-08-01T01:16:37;98477.38;;;17.95;82.96
80798;BME280;70202;52.238;10.680;2023-08-01T01:17:37;98495.91;;;18.03;82.63
80798;BME280;70202;52.238;10.680;2023-08-01T01:18:37;98489.66;;;18.01;82.78
80798;BME280;70202;52.238;10.680;2023-08-01T01:19:38;98485.34;;;17.98;82.86
80798;BME280;70202;52.238;10.680;2023-08-01T01:20:38;98490.69;;;17.99;82.82
80798;BME280;70202;52.238;10.680;2023-08-01T01:21:39;98491.72;;;17.98;82.54
80798;BME280;70202;52.238;10.680;2023-08-01T01:22:41;98483.44;;;17.98;82.74
80798;BME280;70202;52.238;10.680;2023-08-01T01:23:44;98482.59;;;17.98;82.55
80798;BME280;70202;52.238;10.680;2023-08-01T01:24:45;98468.53;;;17.91;82.55
80798;BME280;70202;52.238;10.680;2023-08-01T01:25:47;98481.16;;;17.94;82.63
80798;BME280;70202;52.238;10.680;2023-08-01T01:26:49;98479.25;;;17.94;82.63
80798;BME280;70202;52.238;10.680;2023-08-01T01:27:51;98482.59;;;17.98;82.81
80798;BME280;70202;52.238;10.680;2023-08-01T01:28:53;98458.53;;;17.90;82.74
80798;BME280;70202;52.238;10.680;2023-08-01T01:29:55;98477.94;;;17.98;82.84
80798;BME280;70202;52.238;10.680;2023-08-01T01:30:55;98472.44;;;17.98;82.68
80798;BME280;70202;52.238;10.680;2023-08-01T01:31:57;98466.06;;;17.98;82.72
80798;BME280;70202;52.238;10.680;2023-08-01T01:32:57;98460.53;;;17.98;82.84
80798;BME280;70202;52.238;10.680;2023-08-01T01:33:58;98459.50;;;17.99;82.66
80798;BME280;70202;52.238;10.680;2023-08-01T01:35:01;98446.50;;;17.91;82.70
80798;BME280;70202;52.238;10.680;2023-08-01T01:36:01;98460.53;;;17.98;82.75
80798;BME280;70202;52.238;10.680;2023-08-01T01:37:02;98456.94;;;17.97;82.48
80798;BME280;70202;52.238;10.680;2023-08-01T01:38:03;98457.78;;;17.98;82.58
80798;BME280;70202;52.238;10.680;2023-08-01T01:39:04;98428.84;;;17.84;82.84
80798;BME280;70202;52.238;10.680;2023-08-01T01:40:05;98454.00;;;17.99;82.46
80798;BME280;70202;52.238;10.680;2023-08-01T01:41:05;98450.56;;;17.97;82.63
80798;BME280;70202;52.238;10.680;2023-08-01T01:42:06;98458.47;;;18.00;82.60
80798;BME280;70202;52.238;10.680;2023-08-01T01:43:06;98438.09;;;17.93;82.65
80798;BME280;70202;52.238;10.680;2023-08-01T01:44:07;98451.09;;;18.01;82.81
80798;BME280;70202;52.238;10.680;2023-08-01T01:45:07;98448.31;;;18.01;82.71
80798;BME280;70202;52.238;10.680;2023-08-01T01:46:08;98463.88;;;18.02;82.68
80798;BME280;70202;52.238;10.680;2023-08-01T01:47:08;98457.50;;;18.01;82.82
80798;BME280;70202;52.238;10.680;2023-08-01T01:48:08;98450.09;;;18.02;82.91
80798;BME280;70202;52.238;10.680;2023-08-01T01:49:09;98453.72;;;18.02;82.86
80798;BME280;70202;52.238;10.680;2023-08-01T01:50:09;98450.94;;;18.02;82.76
80798;BME280;70202;52.238;10.680;2023-08-01T01:51:09;98439.97;;;17.92;82.76
80798;BME280;70202;52.238;10.680;2023-08-01T01:52:10;98450.94;;;18.02;82.79
80798;BME280;70202;52.238;10.680;2023-08-01T01:53:10;98445.44;;;18.02;82.80
80798;BME280;70202;52.238;10.680;2023-08-01T01:54:10;98441.81;;;18.02;82.80
80798;BME280;70202;52.238;10.680;2023-08-01T01:55:11;98446.31;;;18.03;82.92
80798;BME280;70202;52.238;10.680;2023-08-01T01:56:12;98447.34;;;18.02;82.77
80798;BME280;70202;52.238;10.680;2023-08-01T01:57:12;98429.66;;;17.94;82.68
80798;BME280;70202;52.238;10.680;2023-08-01T01:58:12;98420.28;;;17.87;82.79
80798;BME280;70202;52.238;10.680;2023-08-01T01:59:13;98445.44;;;18.02;82.77
80798;BME280;70202;52.238;10.680;2023-08-01T02:00:13;98441.09;;;17.99;82.84
80798;BME280;70202;52.238;10.680;2023-08-01T02:01:13;98433.28;;;17.95;82.82
80798;BME280;70202;52.238;10.680;2023-08-01T02:02:14;98444.00;;;17.98;82.77
80798;BME280;70202;52.238;10.680;2023-08-01T02:03:14;98450.09;;;18.02;82.90
80798;BME280;70202;52.238;10.680;2023-08-01T02:04:15;98434.16;;;17.95;82.78
80798;BME280;70202;52.238;10.680;2023-08-01T02:05:15;98443.72;;;18.01;82.98
80798;BME280;70202;52.238;10.680;2023-08-01T02:06:15;98445.44;;;18.02;82.69
80798;BME280;70202;52.238;10.680;2023-08-01T02:07:16;98436.31;;;18.02;82.79
80798;BME280;70202;52.238;10.680;2023-08-01T02:08:16;98435.28;;;18.03;82.88
80798;BME280;70202;52.238;10.680;2023-08-01T02:09:17;98439.94;;;18.02;82.93
80798;BME280;70202;52.238;10.680;2023-08-01T02:10:17;98431.66;;;18.02;82.80
80798;BME280;70202;52.238;10.680;2023-08-01T02:11:17;98415.31;;;17.91;82.76
80798;BME280;70202;52.238;10.680;2023-08-01T02:12:18;98421.25;;;17.96;83.05
80798;BME280;70202;52.238;10.680;2023-08-01T02:13:18;98426.16;;;18.02;83.00
80798;BME280;70202;52.238;10.680;2023-08-01T02:14:18;98432.69;;;18.01;82.90
80798;BME280;70202;52.238;10.680;2023-08-01T02:15:19;98427.03;;;18.03;82.88
80798;BME280;70202;52.238;10.680;2023-08-01T02:16:19;98416.47;;;17.98;83.11
80798;BME280;70202;52.238;10.680;2023-08-01T02:17:19;98426.00;;;18.04;82.75
80798;BME280;70202;52.238;10.680;2023-08-01T02:18:20;98417.72;;;18.04;83.02
80798;BME280;70202;52.238;10.680;2023-08-01T02:19:20;98422.38;;;18.03;82.96
80798;BME280;70202;52.238;10.680;2023-08-01T02:20:21;98412.69;;;17.99;82.77
80798;BME280;70202;52.238;10.680;2023-08-01T02:21:21;98418.59;;;18.04;82.78
80798;BME280;70202;52.238;10.680;2023-08-01T02:22:24;98424.97;;;18.05;82.67
80798;BME280;70202;52.238;10.680;2023-08-01T02:23:24;98419.44;;;18.05;82.99
80798;BME280;70202;52.238;10.680;2023-08-01T02:24:25;98417.56;;;18.05;82.93
80798;BME280;70202;52.238;10.680;2023-08-01T02:25:25;98412.06;;;18.05;82.99
80798;BME280;70202;52.238;10.680;2023-08-01T02:26:25;98410.66;;;18.01;83.11
80798;BME280;70202;52.238;10.680;2023-08-01T02:27:26;98416.56;;;18.06;83.18
80798;BME280;70202;52.238;10.680;2023-08-01T02:28:26;98412.06;;;18.05;83.16
80798;BME280;70202;52.238;10.680;2023-08-01T02:29:27;98402.69;;;17.98;83.19
80798;BME280;70202;52.238;10.680;2023-08-01T02:30:27;98416.69;;;18.05;83.24
80798;BME280;70202;52.238;10.680;2023-08-01T02:31:29;98413.94;;;18.05;83.52
80798;BME280;70202;52.238;10.680;2023-08-01T02:32:29;98405.69;;;18.05;83.35
80798;BME280;70202;52.238;10.680;2023-08-01T02:33:30;98410.31;;;18.04;83.40
80798;BME280;70202;52.238;10.680;2023-08-01T02:34:30;98409.28;;;18.05;83.30
80798;BME280;70202;52.238;10.680;2023-08-01T02:35:30;98399.63;;;18.01;83.38
80798;BME280;70202;52.238;10.680;2023-08-01T02:36:31;98398.50;;;17.94;83.53
80798;BME280;70202;52.238;10.680;2023-08-01T02:37:31;98419.63;;;18.03;83.43
80798;BME280;70202;52.238;10.680;2023-08-01T02:38:31;98413.25;;;18.03;83.66
80798;BME280;70202;52.238;10.680;2023-08-01T02:39:32;98410.78;;;17.99;83.92
80798;BME280;70202;52.238;10.680;2023-08-01T02:40:32;98407.00;;;18.01;83.78
80798;BME280;70202;52.238;10.680;2023-08-01T02:41:33;98405.16;;;18.01;83.68
80798;BME280;70202;52.238;10.680;2023-08-01T02:42:33;98395.75;;;17.94;83.81
80798;BME280;70202;52.238;10.680;2023-08-01T02:43:33;98388.19;;;17.96;83.83
80798;BME280;70202;52.238;10.680;2023-08-01T02:44:36;98375.91;;;17.90;84.29
80798;BME280;70202;52.238;10.680;2023-08-01T02:45:36;98382.53;;;17.97;83.97
80798;BME280;70202;52.238;10.680;2023-08-01T02:46:37;98388.63;;;18.01;84.13
80798;BME280;70202;52.238;10.680;2023-08-01T02:47:37;98383.09;;;18.01;83.81
80798;BME280;70202;52.238;10.680;2023-08-01T02:48:37;98383.41;;;17.98;84.36
80798;BME280;70202;52.238;10.680;2023-08-01T02:49:38;98372.84;;;17.93;84.22
80798;BME280;70202;52.238;10.680;2023-08-01T02:50:38;98387.72;;;18.01;83.97
80798;BME280;70202;52.238;10.680;2023-08-01T02:51:38;98372.09;;;18.01;83.99
80798;BME280;70202;52.238;10.680;2023-08-01T02:52:39;98341.41;;;17.86;84.17
80798;BME280;70202;52.238;10.680;2023-08-01T02:53:40;98338.81;;;17.85;84.41
80798;BME280;70202;52.238;10.680;2023-08-01T02:54:41;98356.25;;;18.03;83.93
80798;BME280;70202;52.238;10.680;2023-08-01T02:55:41;98353.78;;;18.00;84.35
80798;BME280;70202;52.238;10.680;2023-08-01T02:56:42;98356.25;;;18.03;84.40
80798;BME280;70202;52.238;10.680;2023-08-01T02:57:43;98348.63;;;17.97;84.37
80798;BME280;70202;52.238;10.680;2023-08-01T02:58:44;98323.28;;;17.84;84.48
80798;BME280;70202;52.238;10.680;2023-08-01T02:59:44;98351.91;;;18.01;84.49
80798;BME280;70202;52.238;10.680;2023-08-01T03:00:44;98338.03;;;17.92;84.25
80798;BME280;70202;52.238;10.680;2023-08-01T03:01:45;98349.00;;;18.02;84.58
80798;BME280;70202;52.238;10.680;2023-08-01T03:02:45;98334.28;;;17.93;84.68
80798;BME280;70202;52.238;10.680;2023-08-01T03:03:46;98350.75;;;18.03;84.63
80798;BME280;70202;52.238;10.680;2023-08-01T03:04:46;98346.09;;;18.04;84.61
80798;BME280;70202;52.238;10.680;2023-08-01T03:05:47;98338.00;;;18.02;84.64
80798;BME280;70202;52.238;10.680;2023-08-01T03:06:47;98323.47;;;18.00;84.41
80798;BME280;70202;52.238;10.680;2023-08-01T03:07:48;98334.03;;;18.05;84.79
80798;BME280;70202;52.238;10.680;2023-08-01T03:08:48;98332.16;;;18.05;84.82
80798;BME280;70202;52.238;10.680;2023-08-01T03:09:49;98331.16;;;18.06;84.57
80798;BME280;70202;52.238;10.680;2023-08-01T03:10:50;98324.78;;;18.06;84.72
80798;BME280;70202;52.238;10.680;2023-08-01T03:11:50;98307.13;;;17.98;84.97
80798;BME280;70202;52.238;10.680;2023-08-01T03:12:51;98322.03;;;18.06;84.85
80798;BME280;70202;52.238;10.680;2023-08-01T03:13:51;98306.09;;;17.99;84.81
80798;BME280;70202;52.238;10.680;2023-08-01T03:14:51;98312.72;;;18.07;84.70
80798;BME280;70202;52.238;10.680;2023-08-01T03:15:52;98314.63;;;18.06;84.72
80798;BME280;70202;52.238;10.680;2023-08-01T03:16:52;98308.25;;;18.06;84.91
80798;BME280;70202;52.238;10.680;2023-08-01T03:17:52;98307.22;;;18.07;84.72
80798;BME280;70202;52.238;10.680;2023-08-01T03:18:53;98311.84;;;18.06;84.96
80798;BME280;70202;52.238;10.680;2023-08-01T03:19:53;98309.97;;;18.07;84.90
80798;BME280;70202;52.238;10.680;2023-08-01T03:20:54;98309.97;;;18.07;84.87
80798;BME280;70202;52.238;10.680;2023-08-01T03:21:55;98306.47;;;18.05;84.72
80798;BME280;70202;52.238;10.680;2023-08-01T03:22:55;98307.22;;;18.07;84.62
80798;BME280;70202;52.238;10.680;2023-08-01T03:23:55;98308.94;;;18.08;84.83
80798;BME280;70202;52.238;10.680;2023-08-01T03:24:57;98308.94;;;18.08;84.85
80798;BME280;70202;52.238;10.680;2023-08-01T03:25:58;98313.59;;;18.07;85.01
80798;BME280;70202;52.238;10.680;2023-08-01T03:26:58;98289.88;;;17.96;84.78
80798;BME280;70202;52.238;10.680;2023-08-01T03:27:58;98301.44;;;18.00;84.91
80798;BME280;70202;52.238;10.680;2023-08-01T03:28:59;98319.97;;;18.08;84.98
80798;BME280;70202;52.238;10.680;2023-08-01T03:30:00;98313.59;;;18.07;84.90
80798;BME280;70202;52.238;10.680;2023-08-01T03:31:00;98300.44;;;18.01;85.22
80798;BME280;70202;52.238;10.680;2023-08-01T03:32:01;98305.47;;;18.06;85.05
80798;BME280;70202;52.238;10.680;2023-08-01T03:33:02;98289.34;;;17.93;84.92
80798;BME280;70202;52.238;10.680;2023-08-01T03:34:02;98318.06;;;18.08;85.13
80798;BME280;70202;52.238;10.680;2023-08-01T03:35:04;98308.94;;;18.08;85.08
80798;BME280;70202;52.238;10.680;2023-08-01T03:36:05;98272.38;;;17.88;84.89
80798;BME280;70202;52.238;10.680;2023-08-01T03:37:05;98301.53;;;18.08;85.16
80798;BME280;70202;52.238;10.680;2023-08-01T03:38:06;98302.56;;;18.07;85.17
80798;BME280;70202;52.238;10.680;2023-08-01T03:39:06;98302.41;;;18.09;85.01
80798;BME280;70202;52.238;10.680;2023-08-01T03:40:07;98304.28;;;18.08;84.91
80798;BME280;70202;52.238;10.680;2023-08-01T03:41:09;98302.41;;;18.09;84.88
80798;BME280;70202;52.238;10.680;2023-08-01T03:42:09;98296.31;;;18.05;85.00
80798;BME280;70202;52.238;10.680;2023-08-01T03:43:10;98296.03;;;18.08;85.07
80798;BME280;70202;52.238;10.680;2023-08-01T03:44:10;98291.38;;;18.09;85.04
80798;BME280;70202;52.238;10.680;2023-08-01T03:45:10;98284.88;;;18.10;84.88
80798;BME280;70202;52.238;10.680;2023-08-01T03:46:11;98280.34;;;18.09;85.14
80798;BME280;70202;52.238;10.680;2023-08-01T03:47:11;98265.63;;;18.00;84.90
80798;BME280;70202;52.238;10.680;2023-08-01T03:48:12;98275.78;;;17.99;84.79
80798;BME280;70202;52.238;10.680;2023-08-01T03:49:12;98285.47;;;18.04;84.87
80798;BME280;70202;52.238;10.680;2023-08-01T03:50:13;98281.84;;;18.03;84.74
80798;BME280;70202;52.238;10.680;2023-08-01T03:51:14;98300.66;;;18.08;84.90
80798;BME280;70202;52.238;10.680;2023-08-01T03:52:15;98294.28;;;18.07;84.44
80798;BME280;70202;52.238;10.680;2023-08-01T03:53:15;98295.31;;;18.06;84.79
80798;BME280;70202;52.238;10.680;2023-08-01T03:54:16;98299.97;;;18.06;84.66
80798;BME280;70202;52.238;10.680;2023-08-01T03:55:16;98300.66;;;18.08;84.66
80798;BME280;70202;52.238;10.680;2023-08-01T03:56:17;98297.06;;;18.07;84.87
80798;BME280;70202;52.238;10.680;2023-08-01T03:57:17;98300.66;;;18.08;84.64
80798;BME280;70202;52.238;10.680;2023-08-01T03:58:17;98289.25;;;18.03;84.95
80798;BME280;70202;52.238;10.680;2023-08-01T03:59:18;98289.66;;;18.08;84.68
80798;BME280;70202;52.238;10.680;2023-08-01T04:00:18;98282.72;;;18.04;84.64
80798;BME280;70202;52.238;10.680;2023-08-01T04:01:19;98289.66;;;18.08;84.70
80798;BME280;70202;52.238;10.680;2023-08-01T04:02:20;98296.88;;;18.09;84.78
80798;BME280;70202;52.238;10.680;2023-08-01T04:03:20;98272.47;;;17.96;84.76
80798;BME280;70202;52.238;10.680;2023-08-01T04:04:21;98286.72;;;18.09;84.50
80798;BME280;70202;52.238;10.680;2023-08-01T04:05:22;98291.38;;;18.09;84.44
80798;BME280;70202;52.238;10.680;2023-08-01T04:06:24;98295.00;;;18.09;84.77
80798;BME280;70202;52.238;10.680;2023-08-01T04:07:24;98280.13;;;18.02;84.72
80798;BME280;70202;52.238;10.680;2023-08-01T04:08:25;98293.25;;;18.08;84.46
80798;BME280;70202;52.238;10.680;2023-08-01T04:09:25;98282.25;;;18.08;84.38
80798;BME280;70202;52.238;10.680;2023-08-01T04:10:25;98285.00;;;18.08;84.56
80798;BME280;70202;52.238;10.680;2023-08-01T04:11:26;98283.09;;;18.09;84.63
80798;BME280;70202;52.238;10.680;2023-08-01T04:12:27;98281.22;;;18.09;84.78
80798;BME280;70202;52.238;10.680;2023-08-01T04:13:27;98277.59;;;18.09;84.42
80798;BME280;70202;52.238;10.680;2023-08-01T04:14:28;98251.16;;;17.98;84.73
80798;BME280;70202;52.238;10.680;2023-08-01T04:15:28;98270.19;;;18.09;84.79
80798;BME280;70202;52.238;10.680;2023-08-01T04:16:30;98253.63;;;18.01;84.60
80798;BME280;70202;52.238;10.680;2023-08-01T04:17:30;98281.06;;;18.11;84.59
80798;BME280;70202;52.238;10.680;2023-08-01T04:18:31;98264.63;;;18.01;84.50
80798;BME280;70202;52.238;10.680;2023-08-01T04:19:31;98290.22;;;18.11;84.71
80798;BME280;70202;52.238;10.680;2023-08-01T04:20:31;98279.19;;;18.11;84.57
80798;BME280;70202;52.238;10.680;2023-08-01T04:21:32;98291.06;;;18.12;84.49
80798;BME280;70202;52.238;10.680;2023-08-01T04:22:32;98268.38;;;18.00;84.59
80798;BME280;70202;52.238;10.680;2023-08-01T04:23:33;98298.47;;;18.11;84.60
80798;BME280;70202;52.238;10.680;2023-08-01T04:24:33;98298.47;;;18.11;84.51
80798;BME280;70202;52.238;10.680;2023-08-01T04:25:33;98285.72;;;18.10;84.80
80798;BME280;70202;52.238;10.680;2023-08-01T04:26:34;98287.63;;;18.10;84.59
80798;BME280;70202;52.238;10.680;2023-08-01T04:27:34;98272.00;;;18.01;84.72
80798;BME280;70202;52.238;10.680;2023-08-01T04:28:35;98268.34;;;18.10;84.81
80798;BME280;70202;52.238;10.680;2023-08-01T04:29:35;98271.94;;;18.10;84.57
80798;BME280;70202;52.238;10.680;2023-08-01T04:30:35;98254.47;;;18.02;84.87
80798;BME280;70202;52.238;10.680;2023-08-01T04:31:38;98267.28;;;18.11;84.22
80798;BME280;70202;52.238;10.680;2023-08-01T04:32:38;98271.94;;;18.10;84.62
80798;BME280;70202;52.238;10.680;2023-08-01T04:33:39;98280.03;;;18.12;84.89
80798;BME280;70202;52.238;10.680;2023-08-01T04:34:39;98273.84;;;18.10;84.82
80798;BME280;70202;52.238;10.680;2023-08-01T04:35:39;98273.41;;;18.05;84.80
80798;BME280;70202;52.238;10.680;2023-08-01T04:36:40;98284.69;;;18.11;84.84
80798;BME280;70202;52.238;10.680;2023-08-01T04:37:40;98280.53;;;18.07;84.78
80798;BME280;70202;52.238;10.680;2023-08-01T04:38:41;98281.94;;;18.11;84.67
80798;BME280;70202;52.238;10.680;2023-08-01T04:39:42;98279.19;;;18.11;84.67
80798;BME280;70202;52.238;10.680;2023-08-01T04:40:43;98277.28;;;18.12;84.78
80798;BME280;70202;52.238;10.680;2023-08-01T04:41:43;98248.88;;;17.93;84.73
80798;BME280;70202;52.238;10.680;2023-08-01T04:42:44;98271.78;;;18.12;84.73
80798;BME280;70202;52.238;10.680;2023-08-01T04:43:44;98252.56;;;18.02;85.00
80798;BME280;70202;52.238;10.680;2023-08-01T04:44:44;98268.84;;;18.13;85.06
80798;BME280;70202;52.238;10.680;2023-08-01T04:45:45;98267.13;;;18.12;84.82
80798;BME280;70202;52.238;10.680;2023-08-01T04:46:47;98273.38;;;18.14;85.20
80798;BME280;70202;52.238;10.680;2023-08-01T04:47:48;98272.50;;;18.14;84.95
80798;BME280;70202;52.238;10.680;2023-08-01T04:48:48;98246.34;;;18.00;84.99
80798;BME280;70202;52.238;10.680;2023-08-01T04:49:49;98257.13;;;18.11;85.08
80798;BME280;70202;52.238;10.680;2023-08-01T04:50:49;98267.69;;;18.16;85.02
80798;BME280;70202;52.238;10.680;2023-08-01T04:51:51;98267.50;;;18.17;84.95
80798;BME280;70202;52.238;10.680;2023-08-01T04:52:51;98266.66;;;18.17;85.15
80798;BME280;70202;52.238;10.680;2023-08-01T04:53:52;98268.38;;;18.18;84.89
80798;BME280;70202;52.238;10.680;2023-08-01T04:54:52;98259.16;;;18.09;85.03
80798;BME280;70202;52.238;10.680;2023-08-01T04:55:52;98266.50;;;18.18;85.08
80798;BME280;70202;52.238;10.680;2023-08-01T04:56:53;98255.41;;;18.10;84.78
80798;BME280;70202;52.238;10.680;2023-08-01T04:57:53;98263.59;;;18.20;85.05
80798;BME280;70202;52.238;10.680;2023-08-01T04:58:53;98261.69;;;18.20;85.05
80798;BME280;70202;52.238;10.680;2023-08-01T04:59:54;98255.16;;;18.21;85.11
80798;BME280;70202;52.238;10.680;2023-08-01T05:00:54;98252.25;;;18.23;84.39
80798;BME280;70202;52.238;10.680;2023-08-01T05:01:55;98259.66;;;18.22;84.92
80798;BME280;70202;52.238;10.680;2023-08-01T05:02:55;98264.16;;;18.23;85.14
80798;BME280;70202;52.238;10.680;2023-08-01T05:03:55;98252.88;;;18.17;85.01
80798;BME280;70202;52.238;10.680;2023-08-01T05:04:56;98260.34;;;18.24;85.28
80798;BME280;70202;52.238;10.680;2023-08-01T05:05:56;98243.19;;;18.13;85.02
80798;BME280;70202;52.238;10.680;2023-08-01T05:06:57;98261.94;;;18.27;85.28
80798;BME280;70202;52.238;10.680;2023-08-01T05:07:57;98253.81;;;18.26;85.04
80798;BME280;70202;52.238;10.680;2023-08-01T05:08:57;98250.50;;;18.22;85.09
80798;BME280;70202;52.238;10.680;2023-08-01T05:09:58;98260.75;;;18.30;85.09
80798;BME280;70202;52.238;10.680;2023-08-01T05:10:59;98253.13;;;18.23;85.24
80798;BME280;70202;52.238;10.680;2023-08-01T05:11:59;98250.38;;;18.23;85.38
80798;BME280;70202;52.238;10.680;2023-08-01T05:12:59;98272.50;;;18.32;85.05
80798;BME280;70202;52.238;10.680;2023-08-01T05:14:00;98264.22;;;18.32;85.31
80798;BME280;70202;52.238;10.680;2023-08-01T05:15:00;98253.81;;;18.26;85.20
80798;BME280;70202;52.238;10.680;2023-08-01T05:16:00;98264.03;;;18.33;85.13
80798;BME280;70202;52.238;10.680;2023-08-01T05:17:01;98258.53;;;18.33;85.08